Herzlich willkommen!

Am freundlichen Bodensee-Flugplatz zwischen Schwarzwald, Rhein und Alpen.

Aktuelles

Bitte beachten Sie aus gegebenem Anlass auch unseren aktuellen Pilotenhinweis!

Es liegen keine aktuellen Meldungen vor. Wir freuen uns auf Ihren Besuch!

Live am Platz

Die Bilder unserer Webcams werden alle 5 Minuten aktualisiert.

Sonnenaufgang:

05:48 UTC / 07:48 Lokal

Sonnenuntergang:

16:27 UTC / 18:27 Lokal

METAR (20.10.2020 04:50 UTC):

EDNY 200450Z AUTO 09003KT 4600 OVC002/// 02/02 Q1019
LIFR

TAF (19.10.2020 23:00 UTC):

TAF EDNY 192300Z 2000/2024 VRB03KT CAVOK TEMPO 2002/2008 0400 FG OVC001 TEMPO 2008/2010 BKN004

Alle Angaben unverbindlich und ohne Gewähr. Zeiten genähert.

Für den Verkehrslandeplatz Konstanz werden keine offiziellen Wetterinformationen ausgegeben. Daher werden zur Orientierung Daten des nahegelegenen Flughafens Friedrichshafen dargestellt.